Monza Express — ZDJO7 — position and weather

sailwx.info

Track history (hours):
 
Tides and Currents Weather Stations Pressure Air Temp Water Temp Dewpoint Dewpoint Depression Visibility Wind Speed Wind Dir Waves Ship Positions

Monza Express

Last reported at 2018-Apr-24 18:53 UTC. Time now 2018-Apr-25 07:01 UTC.
Position N 41°12' E 002°20'.

Length 168 m; draft 8.4 m.

Type: Cargo ship. MMSI: 236111618.

Date/timePositionNaut miles runAvg speedWind from/ knotsBaromVisibWave heightAir tempDewpointWater temp
2018-Apr-24 18:53N 41°12' E 002°20'615.6
2018-Apr-24 18:31N 41°15' E 002°13'510.8
2018-Apr-24 18:00N 41°20' E 002°10'1 1.7
2018-Apr-24 17:28N 41°20' E 002°09'0 0.0
2018-Apr-24 16:55N 41°20' E 002°09'0 0.0
2018-Apr-24 16:28N 41°20' E 002°09'0 0.0
2018-Apr-24 15:58N 41°20' E 002°09'0 0.0
2018-Apr-24 15:28N 41°20' E 002°09'0 0.0
2018-Apr-24 14:58N 41°20' E 002°09'0 0.0
2018-Apr-24 14:28N 41°20' E 002°09'0 0.0
2018-Apr-24 13:58N 41°20' E 002°09'0 0.0
2018-Apr-24 13:28N 41°20' E 002°09'0 0.0
2018-Apr-24 12:58N 41°20' E 002°09'0 0.0
2018-Apr-24 12:28N 41°20' E 002°09'0 0.0
2018-Apr-24 11:58N 41°20' E 002°09'0 0.0
2018-Apr-24 11:28N 41°20' E 002°09'0 0.0
2018-Apr-24 10:58N 41°20' E 002°09'0 0.0
2018-Apr-24 10:28N 41°20' E 002°09'0 0.0
2018-Apr-24 09:58N 41°20' E 002°09'0 0.0
2018-Apr-24 09:28N 41°20' E 002°09'0 0.0
2018-Apr-24 08:58N 41°20' E 002°09'0 0.0
2018-Apr-24 08:28N 41°20' E 002°09'0 0.0
2018-Apr-24 07:58N 41°20' E 002°09'0 0.0
2018-Apr-24 07:28N 41°20' E 002°09'0 0.0
2018-Apr-24 06:58N 41°20' E 002°09'0 0.0
2018-Apr-24 06:28N 41°20' E 002°09'1 0.4
2018-Apr-24 03:05N 41°19' E 002°10'1 8.0
2018-Apr-24 02:59N 41°18' E 002°10'5 7.5
2018-Apr-24 02:18N 41°13' E 002°09'310.6
2018-Apr-24 02:00N 41°11' E 002°08'510.7
2018-Apr-24 01:30N 41°06' E 002°04'510.6
2018-Apr-24 01:00N 41°01' E 002°01'510.9
2018-Apr-24 00:30N 40°56' E 001°58'510.8
2018-Apr-24 00:00N 40°51' E 001°55'611.0
2018-Apr-23 23:30N 40°47' E 001°51'611.3
2018-Apr-23 23:00N 40°42' E 001°47'611.3
2018-Apr-23 22:30N 40°37' E 001°44'611.4
2018-Apr-23 21:59N 40°31' E 001°40'612.2
2018-Apr-23 21:30N 40°26' E 001°37'12612.3
2018-Apr-23 11:13N 38°34' E 000°21'414.7
2018-Apr-23 10:58N 38°31' E 000°18'1414.6
2018-Apr-23 10:00N 38°20' E 000°08'914.8
2018-Apr-23 09:24N 38°12' E 000°02'914.4
2018-Apr-23 08:46N 38°05' W 000°05'414.3
2018-Apr-23 08:28N 38°02' W 000°08'1814.5
2018-Apr-23 07:16N 37°47' W 000°20'414.5
2018-Apr-23 07:00N 37°43' W 000°22'714.3
2018-Apr-23 06:31N 37°38' W 000°28'714.2
2018-Apr-23 06:01N 37°32' W 000°33'714.4
2018-Apr-23 05:31N 37°27' W 000°39'714.6
2018-Apr-23 05:00N 37°22' W 000°46'714.5
2018-Apr-23 04:30N 37°17' W 000°53'714.3
2018-Apr-23 03:59N 37°12' W 000°60'21414.2
2018-Apr-22 12:57N 36°00' W 005°10'714.8
2018-Apr-22 12:30N 35°59' W 005°19'713.8
2018-Apr-22 12:00N 35°57' W 005°27'6 0.3
2018-Apr-21 16:09N 35°55' W 005°33'1 3.4
2018-Apr-21 15:54N 35°55' W 005°34'610.3
2018-Apr-21 15:17N 35°54' W 005°42'414.7
2018-Apr-21 15:00N 35°53' W 005°47'218 4.2
2018-Apr-19 11:29N 37°24' W 009°54'816.7
2018-Apr-19 11:00N 37°31' W 009°57'916.5
2018-Apr-19 10:28N 37°40' W 009°59'716.1
2018-Apr-19 10:00N 37°47' W 010°01'815.9
2018-Apr-19 09:30N 37°55' W 010°03'816.2
2018-Apr-19 09:00N 38°03' W 010°06'816.2
2018-Apr-19 08:31N 38°11' W 010°08'816.3
2018-Apr-19 08:01N 38°19' W 010°11'816.2
2018-Apr-19 07:31N 38°27' W 010°13'816.4
2018-Apr-19 07:00N 38°35' W 010°15'917.1
2018-Apr-19 06:30N 38°43' W 010°17'917.2
2018-Apr-19 06:00N 38°52' W 010°17'917.3
2018-Apr-19 05:30N 39°00' W 010°17'817.0
2018-Apr-19 05:00N 39°09' W 010°17'817.0
2018-Apr-19 04:30N 39°17' W 010°17'917.2
2018-Apr-19 04:00N 39°26' W 010°17'917.5
2018-Apr-19 03:30N 39°35' W 010°16'1117.5
2018-Apr-19 02:52N 39°46' W 010°15'717.1
2018-Apr-19 02:26N 39°53' W 010°11'32 1.1
2018-Apr-17 21:58N 40°15' W 009°40'916.5
2018-Apr-17 21:24N 40°06' W 009°41'616.5
2018-Apr-17 21:00N 39°59' W 009°42'816.4
2018-Apr-17 20:30N 39°51' W 009°43'816.4
2018-Apr-17 20:00N 39°43' W 009°44'816.5
2018-Apr-17 19:30N 39°35' W 009°45'816.7
2018-Apr-17 19:00N 39°26' W 009°46'816.6
2018-Apr-17 18:30N 39°18' W 009°47'816.5
2018-Apr-17 18:00N 39°10' W 009°48'816.4
2018-Apr-17 17:30N 39°02' W 009°50'816.5
2018-Apr-17 17:00N 38°53' W 009°51'816.7
2018-Apr-17 16:30N 38°45' W 009°52'816.2
2018-Apr-17 16:00N 38°37' W 009°49'816.6
2018-Apr-17 15:30N 38°29' W 009°46'816.5
2018-Apr-17 15:00N 38°21' W 009°43'816.6
2018-Apr-17 14:30N 38°13' W 009°41'816.8
2018-Apr-17 14:00N 38°05' W 009°39'816.7
2018-Apr-17 13:30N 37°57' W 009°37'816.7
2018-Apr-17 13:00N 37°49' W 009°34'816.8
2018-Apr-17 12:30N 37°41' W 009°32'916.9
2018-Apr-17 12:00N 37°32' W 009°30'816.8
2018-Apr-17 11:30N 37°24' W 009°27'816.9
2018-Apr-17 11:00N 37°16' W 009°25'916.8
2018-Apr-17 10:29N 37°07' W 009°22'916.7
2018-Apr-17 09:57N 36°59' W 009°20'2215.9
2018-Apr-17 08:34N 36°43' W 009°00'216.8
2018-Apr-17 08:28N 36°43' W 008°58'817.1
2018-Apr-17 08:00N 36°40' W 008°49'1116.8
2018-Apr-17 07:22N 36°36' W 008°37'616.8
2018-Apr-17 06:59N 36°34' W 008°29'1217.1
2018-Apr-17 06:16N 36°30' W 008°15'616.9
2018-Apr-17 05:54N 36°28' W 008°07'716.9
2018-Apr-17 05:30N 36°26' W 007°59'153 5.1
2018-Apr-15 23:24N 36°03' W 004°51'712.3
2018-Apr-15 22:52N 36°02' W 004°59'512.7
2018-Apr-15 22:27N 36°02' W 005°06'512.1
2018-Apr-15 22:00N 36°01' W 005°12'714.0
2018-Apr-15 21:30N 35°59' W 005°21'714.5
2018-Apr-15 21:00N 35°56' W 005°29'3 0.2
2018-Apr-15 04:43N 35°54' W 005°30'1 2.4
2018-Apr-15 04:24N 35°54' W 005°29'2 2.8
2018-Apr-15 03:34N 35°56' W 005°32'1 6.5
2018-Apr-15 03:27N 35°57' W 005°31'4 9.4
2018-Apr-15 03:00N 35°59' W 005°27'5 9.6
2018-Apr-15 02:30N 36°00' W 005°22'5 9.8
2018-Apr-15 02:00N 36°02' W 005°16'712.3
2018-Apr-15 01:24N 36°03' W 005°07'  
Track history (hours):
 
Tides and Currents Weather Stations Pressure Air Temp Water Temp Dewpoint Dewpoint Depression Visibility Wind Speed Wind Dir Waves Ship Positions

Monza Express

Last reported at 2018-Apr-24 18:53 UTC. Time now 2018-Apr-25 07:01 UTC.
Position N 41°12' E 002°20'.

Length 168 m; draft 8.4 m.

Type: Cargo ship. MMSI: 236111618.

Date/timePositionNaut miles runAvg speedWind from/ knotsBaromVisibWave heightAir tempDewpointWater temp
2018-Apr-24 18:53N 41°12' E 002°20'615.6
2018-Apr-24 18:31N 41°15' E 002°13'510.8
2018-Apr-24 18:00N 41°20' E 002°10'1 1.7
2018-Apr-24 17:28N 41°20' E 002°09'0 0.0
2018-Apr-24 16:55N 41°20' E 002°09'0 0.0
2018-Apr-24 16:28N 41°20' E 002°09'0 0.0
2018-Apr-24 15:58N 41°20' E 002°09'0 0.0
2018-Apr-24 15:28N 41°20' E 002°09'0 0.0
2018-Apr-24 14:58N 41°20' E 002°09'0 0.0
2018-Apr-24 14:28N 41°20' E 002°09'0 0.0
2018-Apr-24 13:58N 41°20' E 002°09'0 0.0
2018-Apr-24 13:28N 41°20' E 002°09'0 0.0
2018-Apr-24 12:58N 41°20' E 002°09'0 0.0
2018-Apr-24 12:28N 41°20' E 002°09'0 0.0
2018-Apr-24 11:58N 41°20' E 002°09'0 0.0
2018-Apr-24 11:28N 41°20' E 002°09'0 0.0
2018-Apr-24 10:58N 41°20' E 002°09'0 0.0
2018-Apr-24 10:28N 41°20' E 002°09'0 0.0
2018-Apr-24 09:58N 41°20' E 002°09'0 0.0
2018-Apr-24 09:28N 41°20' E 002°09'0 0.0
2018-Apr-24 08:58N 41°20' E 002°09'0 0.0
2018-Apr-24 08:28N 41°20' E 002°09'0 0.0
2018-Apr-24 07:58N 41°20' E 002°09'0 0.0
2018-Apr-24 07:28N 41°20' E 002°09'0 0.0
2018-Apr-24 06:58N 41°20' E 002°09'0 0.0
2018-Apr-24 06:28N 41°20' E 002°09'1 0.4
2018-Apr-24 03:05N 41°19' E 002°10'1 8.0
2018-Apr-24 02:59N 41°18' E 002°10'5 7.5
2018-Apr-24 02:18N 41°13' E 002°09'310.6
2018-Apr-24 02:00N 41°11' E 002°08'510.7
2018-Apr-24 01:30N 41°06' E 002°04'510.6
2018-Apr-24 01:00N 41°01' E 002°01'510.9
2018-Apr-24 00:30N 40°56' E 001°58'510.8
2018-Apr-24 00:00N 40°51' E 001°55'611.0
2018-Apr-23 23:30N 40°47' E 001°51'611.3
2018-Apr-23 23:00N 40°42' E 001°47'611.3
2018-Apr-23 22:30N 40°37' E 001°44'611.4
2018-Apr-23 21:59N 40°31' E 001°40'612.2
2018-Apr-23 21:30N 40°26' E 001°37'12612.3
2018-Apr-23 11:13N 38°34' E 000°21'414.7
2018-Apr-23 10:58N 38°31' E 000°18'1414.6
2018-Apr-23 10:00N 38°20' E 000°08'914.8
2018-Apr-23 09:24N 38°12' E 000°02'914.4
2018-Apr-23 08:46N 38°05' W 000°05'414.3
2018-Apr-23 08:28N 38°02' W 000°08'1814.5
2018-Apr-23 07:16N 37°47' W 000°20'414.5
2018-Apr-23 07:00N 37°43' W 000°22'714.3
2018-Apr-23 06:31N 37°38' W 000°28'714.2
2018-Apr-23 06:01N 37°32' W 000°33'714.4
2018-Apr-23 05:31N 37°27' W 000°39'714.6
2018-Apr-23 05:00N 37°22' W 000°46'714.5
2018-Apr-23 04:30N 37°17' W 000°53'714.3
2018-Apr-23 03:59N 37°12' W 000°60'21414.2
2018-Apr-22 12:57N 36°00' W 005°10'714.8
2018-Apr-22 12:30N 35°59' W 005°19'713.8
2018-Apr-22 12:00N 35°57' W 005°27'6 0.3
2018-Apr-21 16:09N 35°55' W 005°33'1 3.4
2018-Apr-21 15:54N 35°55' W 005°34'610.3
2018-Apr-21 15:17N 35°54' W 005°42'414.7
2018-Apr-21 15:00N 35°53' W 005°47'218 4.2
2018-Apr-19 11:29N 37°24' W 009°54'816.7
2018-Apr-19 11:00N 37°31' W 009°57'916.5
2018-Apr-19 10:28N 37°40' W 009°59'716.1
2018-Apr-19 10:00N 37°47' W 010°01'815.9
2018-Apr-19 09:30N 37°55' W 010°03'816.2
2018-Apr-19 09:00N 38°03' W 010°06'816.2
2018-Apr-19 08:31N 38°11' W 010°08'816.3
2018-Apr-19 08:01N 38°19' W 010°11'816.2
2018-Apr-19 07:31N 38°27' W 010°13'816.4
2018-Apr-19 07:00N 38°35' W 010°15'917.1
2018-Apr-19 06:30N 38°43' W 010°17'917.2
2018-Apr-19 06:00N 38°52' W 010°17'917.3
2018-Apr-19 05:30N 39°00' W 010°17'817.0
2018-Apr-19 05:00N 39°09' W 010°17'817.0
2018-Apr-19 04:30N 39°17' W 010°17'917.2
2018-Apr-19 04:00N 39°26' W 010°17'917.5
2018-Apr-19 03:30N 39°35' W 010°16'1117.5
2018-Apr-19 02:52N 39°46' W 010°15'717.1
2018-Apr-19 02:26N 39°53' W 010°11'32 1.1
2018-Apr-17 21:58N 40°15' W 009°40'916.5
2018-Apr-17 21:24N 40°06' W 009°41'616.5
2018-Apr-17 21:00N 39°59' W 009°42'816.4
2018-Apr-17 20:30N 39°51' W 009°43'816.4
2018-Apr-17 20:00N 39°43' W 009°44'816.5
2018-Apr-17 19:30N 39°35' W 009°45'816.7
2018-Apr-17 19:00N 39°26' W 009°46'816.6
2018-Apr-17 18:30N 39°18' W 009°47'816.5
2018-Apr-17 18:00N 39°10' W 009°48'816.4
2018-Apr-17 17:30N 39°02' W 009°50'816.5
2018-Apr-17 17:00N 38°53' W 009°51'816.7
2018-Apr-17 16:30N 38°45' W 009°52'816.2
2018-Apr-17 16:00N 38°37' W 009°49'816.6
2018-Apr-17 15:30N 38°29' W 009°46'816.5
2018-Apr-17 15:00N 38°21' W 009°43'816.6
2018-Apr-17 14:30N 38°13' W 009°41'816.8
2018-Apr-17 14:00N 38°05' W 009°39'816.7
2018-Apr-17 13:30N 37°57' W 009°37'816.7
2018-Apr-17 13:00N 37°49' W 009°34'816.8
2018-Apr-17 12:30N 37°41' W 009°32'916.9
2018-Apr-17 12:00N 37°32' W 009°30'816.8
2018-Apr-17 11:30N 37°24' W 009°27'816.9
2018-Apr-17 11:00N 37°16' W 009°25'916.8
2018-Apr-17 10:29N 37°07' W 009°22'916.7
2018-Apr-17 09:57N 36°59' W 009°20'2215.9
2018-Apr-17 08:34N 36°43' W 009°00'216.8
2018-Apr-17 08:28N 36°43' W 008°58'817.1
2018-Apr-17 08:00N 36°40' W 008°49'1116.8
2018-Apr-17 07:22N 36°36' W 008°37'616.8
2018-Apr-17 06:59N 36°34' W 008°29'1217.1
2018-Apr-17 06:16N 36°30' W 008°15'616.9
2018-Apr-17 05:54N 36°28' W 008°07'716.9
2018-Apr-17 05:30N 36°26' W 007°59'153 5.1
2018-Apr-15 23:24N 36°03' W 004°51'712.3
2018-Apr-15 22:52N 36°02' W 004°59'512.7
2018-Apr-15 22:27N 36°02' W 005°06'512.1
2018-Apr-15 22:00N 36°01' W 005°12'714.0
2018-Apr-15 21:30N 35°59' W 005°21'714.5
2018-Apr-15 21:00N 35°56' W 005°29'3 0.2
2018-Apr-15 04:43N 35°54' W 005°30'1 2.4
2018-Apr-15 04:24N 35°54' W 005°29'2 2.8
2018-Apr-15 03:34N 35°56' W 005°32'1 6.5
2018-Apr-15 03:27N 35°57' W 005°31'4 9.4
2018-Apr-15 03:00N 35°59' W 005°27'5 9.6
2018-Apr-15 02:30N 36°00' W 005°22'5 9.8
2018-Apr-15 02:00N 36°02' W 005°16'712.3
2018-Apr-15 01:24N 36°03' W 005°07'  

Dump ship's entire track history